sensor_id;sensor_type;location;lat;lon;timestamp;P1;durP1;ratioP1;P2;durP2;ratioP2
37937;SDS011;23763;48.130;11.602;2023-04-06T00:00:33;6.80;;;5.83;;
37937;SDS011;23763;48.130;11.602;2023-04-06T00:02:59;9.03;;;5.20;;
37937;SDS011;23763;48.130;11.602;2023-04-06T00:05:25;6.67;;;5.30;;
37937;SDS011;23763;48.130;11.602;2023-04-06T00:07:52;7.77;;;5.13;;
37937;SDS011;23763;48.130;11.602;2023-04-06T00:10:19;8.13;;;5.80;;
37937;SDS011;23763;48.130;11.602;2023-04-06T00:12:45;8.40;;;5.17;;
37937;SDS011;23763;48.130;11.602;2023-04-06T00:15:10;8.20;;;5.90;;
37937;SDS011;23763;48.130;11.602;2023-04-06T00:17:36;8.47;;;5.50;;
37937;SDS011;23763;48.130;11.602;2023-04-06T00:20:02;6.10;;;5.50;;
37937;SDS011;23763;48.130;11.602;2023-04-06T00:22:28;10.17;;;5.40;;
37937;SDS011;23763;48.130;11.602;2023-04-06T00:24:53;8.13;;;5.23;;
37937;SDS011;23763;48.130;11.602;2023-04-06T00:27:19;5.87;;;5.03;;
37937;SDS011;23763;48.130;11.602;2023-04-06T00:29:45;7.63;;;5.50;;
37937;SDS011;23763;48.130;11.602;2023-04-06T00:32:10;8.27;;;5.47;;
37937;SDS011;23763;48.130;11.602;2023-04-06T00:34:36;11.97;;;5.63;;
37937;SDS011;23763;48.130;11.602;2023-04-06T00:37:02;7.37;;;5.53;;
37937;SDS011;23763;48.130;11.602;2023-04-06T00:39:27;5.97;;;5.20;;
37937;SDS011;23763;48.130;11.602;2023-04-06T00:41:53;5.97;;;5.20;;
37937;SDS011;23763;48.130;11.602;2023-04-06T00:44:20;6.10;;;5.20;;
37937;SDS011;23763;48.130;11.602;2023-04-06T00:46:46;8.50;;;4.90;;
37937;SDS011;23763;48.130;11.602;2023-04-06T00:49:12;9.07;;;5.30;;
37937;SDS011;23763;48.130;11.602;2023-04-06T00:51:37;7.33;;;5.77;;
37937;SDS011;23763;48.130;11.602;2023-04-06T00:54:03;6.30;;;5.07;;
37937;SDS011;23763;48.130;11.602;2023-04-06T00:56:29;6.07;;;5.00;;
37937;SDS011;23763;48.130;11.602;2023-04-06T00:58:54;5.60;;;5.07;;
37937;SDS011;23763;48.130;11.602;2023-04-06T01:01:20;7.30;;;5.20;;
37937;SDS011;23763;48.130;11.602;2023-04-06T01:03:46;7.40;;;5.20;;
37937;SDS011;23763;48.130;11.602;2023-04-06T01:06:14;6.07;;;4.93;;
37937;SDS011;23763;48.130;11.602;2023-04-06T01:08:41;7.53;;;5.00;;
37937;SDS011;23763;48.130;11.602;2023-04-06T01:11:06;7.70;;;4.87;;
37937;SDS011;23763;48.130;11.602;2023-04-06T01:13:32;7.03;;;4.93;;
37937;SDS011;23763;48.130;11.602;2023-04-06T01:15:58;7.97;;;4.93;;
37937;SDS011;23763;48.130;11.602;2023-04-06T01:18:27;6.97;;;5.23;;
37937;SDS011;23763;48.130;11.602;2023-04-06T01:20:53;8.60;;;4.63;;
37937;SDS011;23763;48.130;11.602;2023-04-06T01:23:19;7.80;;;4.43;;
37937;SDS011;23763;48.130;11.602;2023-04-06T01:25:44;6.83;;;4.77;;
37937;SDS011;23763;48.130;11.602;2023-04-06T01:28:10;8.20;;;4.90;;
37937;SDS011;23763;48.130;11.602;2023-04-06T01:30:36;5.80;;;4.90;;
37937;SDS011;23763;48.130;11.602;2023-04-06T01:33:01;5.80;;;4.73;;
37937;SDS011;23763;48.130;11.602;2023-04-06T01:35:27;6.40;;;4.80;;
37937;SDS011;23763;48.130;11.602;2023-04-06T01:37:53;6.23;;;4.43;;
37937;SDS011;23763;48.130;11.602;2023-04-06T01:40:19;7.13;;;4.63;;
37937;SDS011;23763;48.130;11.602;2023-04-06T01:42:45;4.63;;;4.20;;
37937;SDS011;23763;48.130;11.602;2023-04-06T01:45:11;6.43;;;4.60;;
37937;SDS011;23763;48.130;11.602;2023-04-06T01:47:37;6.33;;;4.50;;
37937;SDS011;23763;48.130;11.602;2023-04-06T01:50:02;7.00;;;4.90;;
37937;SDS011;23763;48.130;11.602;2023-04-06T01:52:31;5.27;;;4.53;;
37937;SDS011;23763;48.130;11.602;2023-04-06T01:54:57;7.10;;;4.57;;
37937;SDS011;23763;48.130;11.602;2023-04-06T01:57:23;5.67;;;5.00;;
37937;SDS011;23763;48.130;11.602;2023-04-06T01:59:50;7.43;;;4.83;;
37937;SDS011;23763;48.130;11.602;2023-04-06T02:02:16;8.60;;;4.70;;
37937;SDS011;23763;48.130;11.602;2023-04-06T02:04:42;5.80;;;5.07;;
37937;SDS011;23763;48.130;11.602;2023-04-06T02:07:08;6.03;;;4.83;;
37937;SDS011;23763;48.130;11.602;2023-04-06T02:09:33;6.60;;;4.70;;
37937;SDS011;23763;48.130;11.602;2023-04-06T02:11:59;7.63;;;4.93;;
37937;SDS011;23763;48.130;11.602;2023-04-06T02:14:26;6.93;;;4.50;;
37937;SDS011;23763;48.130;11.602;2023-04-06T02:16:52;6.30;;;4.97;;
37937;SDS011;23763;48.130;11.602;2023-04-06T02:19:17;6.67;;;5.20;;
37937;SDS011;23763;48.130;11.602;2023-04-06T02:21:43;5.80;;;5.00;;
37937;SDS011;23763;48.130;11.602;2023-04-06T02:24:09;5.77;;;4.63;;
37937;SDS011;23763;48.130;11.602;2023-04-06T02:26:34;8.93;;;4.87;;
37937;SDS011;23763;48.130;11.602;2023-04-06T02:29:00;6.30;;;4.53;;
37937;SDS011;23763;48.130;11.602;2023-04-06T02:31:27;7.27;;;5.10;;
37937;SDS011;23763;48.130;11.602;2023-04-06T02:33:52;6.53;;;4.97;;
37937;SDS011;23763;48.130;11.602;2023-04-06T02:36:18;6.40;;;5.07;;
37937;SDS011;23763;48.130;11.602;2023-04-06T02:38:44;6.47;;;4.80;;
37937;SDS011;23763;48.130;11.602;2023-04-06T02:41:09;6.70;;;4.27;;
37937;SDS011;23763;48.130;11.602;2023-04-06T02:43:35;11.50;;;5.00;;
37937;SDS011;23763;48.130;11.602;2023-04-06T02:46:00;7.97;;;4.97;;
37937;SDS011;23763;48.130;11.602;2023-04-06T02:48:26;9.40;;;5.67;;
37937;SDS011;23763;48.130;11.602;2023-04-06T02:50:52;5.97;;;5.10;;
37937;SDS011;23763;48.130;11.602;2023-04-06T02:53:17;5.33;;;4.60;;
37937;SDS011;23763;48.130;11.602;2023-04-06T02:55:43;7.43;;;4.83;;
37937;SDS011;23763;48.130;11.602;2023-04-06T02:58:08;5.90;;;4.87;;
37937;SDS011;23763;48.130;11.602;2023-04-06T03:00:34;7.53;;;5.10;;
37937;SDS011;23763;48.130;11.602;2023-04-06T03:03:01;7.27;;;4.43;;
37937;SDS011;23763;48.130;11.602;2023-04-06T03:05:26;6.17;;;4.50;;
37937;SDS011;23763;48.130;11.602;2023-04-06T03:07:52;8.27;;;5.20;;
37937;SDS011;23763;48.130;11.602;2023-04-06T03:10:17;6.20;;;4.93;;
37937;SDS011;23763;48.130;11.602;2023-04-06T03:12:43;6.37;;;4.80;;
37937;SDS011;23763;48.130;11.602;2023-04-06T03:15:09;5.63;;;5.13;;
37937;SDS011;23763;48.130;11.602;2023-04-06T03:17:35;5.17;;;4.63;;
37937;SDS011;23763;48.130;11.602;2023-04-06T03:20:01;8.37;;;5.20;;
37937;SDS011;23763;48.130;11.602;2023-04-06T03:22:26;7.90;;;5.47;;
37937;SDS011;23763;48.130;11.602;2023-04-06T03:24:53;6.17;;;4.43;;
37937;SDS011;23763;48.130;11.602;2023-04-06T03:27:19;5.67;;;4.33;;
37937;SDS011;23763;48.130;11.602;2023-04-06T03:29:44;7.50;;;4.90;;
37937;SDS011;23763;48.130;11.602;2023-04-06T03:32:10;5.87;;;4.60;;
37937;SDS011;23763;48.130;11.602;2023-04-06T03:34:36;7.43;;;4.43;;
37937;SDS011;23763;48.130;11.602;2023-04-06T03:37:02;5.60;;;4.60;;
37937;SDS011;23763;48.130;11.602;2023-04-06T03:39:28;6.83;;;5.00;;
37937;SDS011;23763;48.130;11.602;2023-04-06T03:41:54;6.70;;;5.13;;
37937;SDS011;23763;48.130;11.602;2023-04-06T03:44:19;6.97;;;5.07;;
37937;SDS011;23763;48.130;11.602;2023-04-06T03:46:45;6.63;;;5.27;;
37937;SDS011;23763;48.130;11.602;2023-04-06T03:49:10;5.80;;;4.87;;
37937;SDS011;23763;48.130;11.602;2023-04-06T03:51:36;9.57;;;5.03;;
37937;SDS011;23763;48.130;11.602;2023-04-06T03:54:01;6.67;;;4.93;;
37937;SDS011;23763;48.130;11.602;2023-04-06T03:56:27;6.27;;;5.07;;
37937;SDS011;23763;48.130;11.602;2023-04-06T03:58:53;10.03;;;4.77;;
37937;SDS011;23763;48.130;11.602;2023-04-06T04:01:18;6.90;;;4.80;;
37937;SDS011;23763;48.130;11.602;2023-04-06T04:03:44;8.47;;;5.30;;
37937;SDS011;23763;48.130;11.602;2023-04-06T04:06:10;8.20;;;5.13;;
37937;SDS011;23763;48.130;11.602;2023-04-06T04:08:35;8.33;;;4.87;;
37937;SDS011;23763;48.130;11.602;2023-04-06T04:11:01;6.80;;;4.43;;
37937;SDS011;23763;48.130;11.602;2023-04-06T04:13:27;7.57;;;4.90;;
37937;SDS011;23763;48.130;11.602;2023-04-06T04:15:52;6.90;;;4.33;;
37937;SDS011;23763;48.130;11.602;2023-04-06T04:18:18;7.83;;;5.17;;
37937;SDS011;23763;48.130;11.602;2023-04-06T04:20:44;7.07;;;4.93;;
37937;SDS011;23763;48.130;11.602;2023-04-06T04:23:09;6.90;;;5.43;;
37937;SDS011;23763;48.130;11.602;2023-04-06T04:25:35;12.10;;;5.50;;
37937;SDS011;23763;48.130;11.602;2023-04-06T04:28:01;7.10;;;5.10;;
37937;SDS011;23763;48.130;11.602;2023-04-06T04:30:27;8.63;;;4.93;;
37937;SDS011;23763;48.130;11.602;2023-04-06T04:32:53;9.07;;;5.07;;
37937;SDS011;23763;48.130;11.602;2023-04-06T04:35:18;6.43;;;4.80;;
37937;SDS011;23763;48.130;11.602;2023-04-06T04:37:44;8.60;;;5.83;;
37937;SDS011;23763;48.130;11.602;2023-04-06T04:40:10;7.53;;;5.17;;
37937;SDS011;23763;48.130;11.602;2023-04-06T04:42:36;7.37;;;5.13;;
37937;SDS011;23763;48.130;11.602;2023-04-06T04:45:02;5.77;;;4.80;;
37937;SDS011;23763;48.130;11.602;2023-04-06T04:47:28;7.13;;;4.83;;
37937;SDS011;23763;48.130;11.602;2023-04-06T04:49:53;5.63;;;4.67;;
37937;SDS011;23763;48.130;11.602;2023-04-06T04:52:19;6.97;;;5.43;;
37937;SDS011;23763;48.130;11.602;2023-04-06T04:54:45;7.30;;;5.07;;
37937;SDS011;23763;48.130;11.602;2023-04-06T04:57:12;7.63;;;5.37;;
37937;SDS011;23763;48.130;11.602;2023-04-06T04:59:37;5.93;;;5.00;;
37937;SDS011;23763;48.130;11.602;2023-04-06T05:02:03;7.33;;;5.43;;
37937;SDS011;23763;48.130;11.602;2023-04-06T05:04:29;8.47;;;5.13;;
37937;SDS011;23763;48.130;11.602;2023-04-06T05:07:04;8.27;;;5.37;;
37937;SDS011;23763;48.130;11.602;2023-04-06T05:09:31;7.23;;;5.20;;
37937;SDS011;23763;48.130;11.602;2023-04-06T05:11:57;7.33;;;5.43;;
37937;SDS011;23763;48.130;11.602;2023-04-06T05:14:23;7.13;;;5.60;;
37937;SDS011;23763;48.130;11.602;2023-04-06T05:16:49;10.60;;;5.27;;
37937;SDS011;23763;48.130;11.602;2023-04-06T05:19:15;7.47;;;5.17;;
37937;SDS011;23763;48.130;11.602;2023-04-06T05:21:41;6.53;;;5.40;;
37937;SDS011;23763;48.130;11.602;2023-04-06T05:24:06;6.23;;;5.20;;
37937;SDS011;23763;48.130;11.602;2023-04-06T05:26:32;10.10;;;5.00;;
37937;SDS011;23763;48.130;11.602;2023-04-06T05:28:58;7.77;;;5.77;;
37937;SDS011;23763;48.130;11.602;2023-04-06T05:31:23;9.77;;;5.50;;
37937;SDS011;23763;48.130;11.602;2023-04-06T05:33:49;9.13;;;5.07;;
37937;SDS011;23763;48.130;11.602;2023-04-06T05:36:15;6.37;;;5.00;;
37937;SDS011;23763;48.130;11.602;2023-04-06T05:38:41;7.20;;;4.60;;
37937;SDS011;23763;48.130;11.602;2023-04-06T05:41:06;8.87;;;5.10;;
37937;SDS011;23763;48.130;11.602;2023-04-06T05:43:32;8.97;;;5.03;;
37937;SDS011;23763;48.130;11.602;2023-04-06T05:45:58;7.53;;;5.40;;
37937;SDS011;23763;48.130;11.602;2023-04-06T05:48:24;6.20;;;4.87;;
37937;SDS011;23763;48.130;11.602;2023-04-06T05:50:50;7.57;;;5.40;;
37937;SDS011;23763;48.130;11.602;2023-04-06T05:53:16;9.90;;;5.93;;
37937;SDS011;23763;48.130;11.602;2023-04-06T05:55:41;8.07;;;5.03;;
37937;SDS011;23763;48.130;11.602;2023-04-06T05:58:07;8.33;;;5.47;;
37937;SDS011;23763;48.130;11.602;2023-04-06T06:00:34;8.40;;;5.37;;
37937;SDS011;23763;48.130;11.602;2023-04-06T06:02:59;8.43;;;5.37;;
37937;SDS011;23763;48.130;11.602;2023-04-06T06:05:25;10.13;;;4.87;;
37937;SDS011;23763;48.130;11.602;2023-04-06T06:07:51;10.47;;;5.13;;
37937;SDS011;23763;48.130;11.602;2023-04-06T06:10:17;7.00;;;5.13;;
37937;SDS011;23763;48.130;11.602;2023-04-06T06:12:42;10.10;;;5.67;;
37937;SDS011;23763;48.130;11.602;2023-04-06T06:15:08;10.20;;;5.57;;
37937;SDS011;23763;48.130;11.602;2023-04-06T06:17:34;9.93;;;5.77;;
37937;SDS011;23763;48.130;11.602;2023-04-06T06:20:00;8.23;;;5.50;;
37937;SDS011;23763;48.130;11.602;2023-04-06T06:22:26;9.80;;;6.10;;
37937;SDS011;23763;48.130;11.602;2023-04-06T06:24:51;10.83;;;6.20;;
37937;SDS011;23763;48.130;11.602;2023-04-06T06:27:17;7.97;;;5.67;;
37937;SDS011;23763;48.130;11.602;2023-04-06T06:29:42;15.60;;;7.23;;
37937;SDS011;23763;48.130;11.602;2023-04-06T06:32:08;8.00;;;5.67;;
37937;SDS011;23763;48.130;11.602;2023-04-06T06:34:35;8.20;;;5.47;;
37937;SDS011;23763;48.130;11.602;2023-04-06T06:37:00;7.73;;;5.63;;
37937;SDS011;23763;48.130;11.602;2023-04-06T06:39:27;10.30;;;7.93;;
37937;SDS011;23763;48.130;11.602;2023-04-06T06:41:52;9.73;;;8.17;;
37937;SDS011;23763;48.130;11.602;2023-04-06T06:44:20;11.20;;;8.60;;
37937;SDS011;23763;48.130;11.602;2023-04-06T06:46:46;9.13;;;6.13;;
37937;SDS011;23763;48.130;11.602;2023-04-06T06:49:12;12.53;;;6.70;;
37937;SDS011;23763;48.130;11.602;2023-04-06T06:51:39;9.67;;;5.77;;
37937;SDS011;23763;48.130;11.602;2023-04-06T06:54:05;16.43;;;10.70;;
37937;SDS011;23763;48.130;11.602;2023-04-06T06:56:31;11.53;;;7.33;;
37937;SDS011;23763;48.130;11.602;2023-04-06T06:58:56;9.20;;;6.33;;
37937;SDS011;23763;48.130;11.602;2023-04-06T07:01:22;8.90;;;6.67;;
37937;SDS011;23763;48.130;11.602;2023-04-06T07:03:48;11.83;;;7.40;;
37937;SDS011;23763;48.130;11.602;2023-04-06T07:06:13;28.97;;;13.47;;
37937;SDS011;23763;48.130;11.602;2023-04-06T07:08:39;13.30;;;7.93;;
37937;SDS011;23763;48.130;11.602;2023-04-06T07:11:05;13.93;;;6.90;;
37937;SDS011;23763;48.130;11.602;2023-04-06T07:13:30;11.93;;;7.13;;
37937;SDS011;23763;48.130;11.602;2023-04-06T07:15:56;12.93;;;7.97;;
37937;SDS011;23763;48.130;11.602;2023-04-06T07:18:22;13.43;;;9.50;;
37937;SDS011;23763;48.130;11.602;2023-04-06T07:20:48;14.67;;;7.87;;
37937;SDS011;23763;48.130;11.602;2023-04-06T07:23:13;6.83;;;6.13;;
37937;SDS011;23763;48.130;11.602;2023-04-06T07:25:39;10.17;;;6.67;;
37937;SDS011;23763;48.130;11.602;2023-04-06T07:28:05;8.83;;;6.37;;
37937;SDS011;23763;48.130;11.602;2023-04-06T07:30:31;15.38;;;7.05;;
37937;SDS011;23763;48.130;11.602;2023-04-06T07:32:56;10.10;;;7.00;;
37937;SDS011;23763;48.130;11.602;2023-04-06T07:35:24;9.20;;;7.28;;
37937;SDS011;23763;48.130;11.602;2023-04-06T07:37:50;9.55;;;7.50;;
37937;SDS011;23763;48.130;11.602;2023-04-06T07:40:17;11.68;;;7.15;;
37937;SDS011;23763;48.130;11.602;2023-04-06T07:42:43;9.52;;;7.00;;
37937;SDS011;23763;48.130;11.602;2023-04-06T07:45:08;10.70;;;7.03;;
37937;SDS011;23763;48.130;11.602;2023-04-06T07:47:34;7.43;;;6.15;;
37937;SDS011;23763;48.130;11.602;2023-04-06T07:50:00;10.18;;;7.63;;
37937;SDS011;23763;48.130;11.602;2023-04-06T07:52:26;9.32;;;6.78;;
37937;SDS011;23763;48.130;11.602;2023-04-06T07:54:52;11.13;;;7.20;;
37937;SDS011;23763;48.130;11.602;2023-04-06T07:57:17;11.90;;;8.07;;
37937;SDS011;23763;48.130;11.602;2023-04-06T07:59:43;7.93;;;6.63;;
37937;SDS011;23763;48.130;11.602;2023-04-06T08:02:09;9.65;;;7.78;;
37937;SDS011;23763;48.130;11.602;2023-04-06T08:04:35;10.35;;;6.60;;
37937;SDS011;23763;48.130;11.602;2023-04-06T08:07:01;13.60;;;7.45;;
37937;SDS011;23763;48.130;11.602;2023-04-06T08:09:27;9.32;;;7.03;;
37937;SDS011;23763;48.130;11.602;2023-04-06T08:11:53;8.80;;;7.07;;
37937;SDS011;23763;48.130;11.602;2023-04-06T08:14:19;9.38;;;6.97;;
37937;SDS011;23763;48.130;11.602;2023-04-06T08:16:45;9.95;;;7.20;;
37937;SDS011;23763;48.130;11.602;2023-04-06T08:19:11;9.23;;;6.97;;
37937;SDS011;23763;48.130;11.602;2023-04-06T08:21:36;9.00;;;6.78;;
37937;SDS011;23763;48.130;11.602;2023-04-06T08:24:02;10.07;;;7.57;;
37937;SDS011;23763;48.130;11.602;2023-04-06T08:26:28;13.07;;;8.43;;
37937;SDS011;23763;48.130;11.602;2023-04-06T08:28:54;8.45;;;7.05;;
37937;SDS011;23763;48.130;11.602;2023-04-06T08:31:20;9.35;;;6.45;;
37937;SDS011;23763;48.130;11.602;2023-04-06T08:33:46;10.20;;;7.03;;
37937;SDS011;23763;48.130;11.602;2023-04-06T08:36:12;10.95;;;7.55;;
37937;SDS011;23763;48.130;11.602;2023-04-06T08:38:39;12.52;;;8.82;;
37937;SDS011;23763;48.130;11.602;2023-04-06T08:41:06;9.75;;;7.07;;
37937;SDS011;23763;48.130;11.602;2023-04-06T08:43:33;7.95;;;6.50;;
37937;SDS011;23763;48.130;11.602;2023-04-06T08:46:04;11.88;;;8.25;;
37937;SDS011;23763;48.130;11.602;2023-04-06T08:48:30;12.35;;;9.23;;
37937;SDS011;23763;48.130;11.602;2023-04-06T08:50:56;8.70;;;7.15;;
37937;SDS011;23763;48.130;11.602;2023-04-06T08:53:22;10.20;;;8.27;;
37937;SDS011;23763;48.130;11.602;2023-04-06T08:55:48;13.68;;;9.55;;
37937;SDS011;23763;48.130;11.602;2023-04-06T08:58:13;8.20;;;7.38;;
37937;SDS011;23763;48.130;11.602;2023-04-06T09:00:40;10.88;;;9.32;;
37937;SDS011;23763;48.130;11.602;2023-04-06T09:03:06;8.77;;;6.93;;
37937;SDS011;23763;48.130;11.602;2023-04-06T09:05:32;8.30;;;6.88;;
37937;SDS011;23763;48.130;11.602;2023-04-06T09:07:58;14.10;;;9.05;;
37937;SDS011;23763;48.130;11.602;2023-04-06T09:10:24;7.35;;;6.57;;
37937;SDS011;23763;48.130;11.602;2023-04-06T09:15:23;8.77;;;7.25;;
37937;SDS011;23763;48.130;11.602;2023-04-06T09:17:49;9.40;;;7.13;;
37937;SDS011;23763;48.130;11.602;2023-04-06T09:20:21;9.55;;;7.13;;
37937;SDS011;23763;48.130;11.602;2023-04-06T09:22:48;8.45;;;6.85;;
37937;SDS011;23763;48.130;11.602;2023-04-06T09:25:18;8.80;;;6.50;;
37937;SDS011;23763;48.130;11.602;2023-04-06T09:27:46;9.00;;;7.55;;
37937;SDS011;23763;48.130;11.602;2023-04-06T09:30:12;8.63;;;6.97;;
37937;SDS011;23763;48.130;11.602;2023-04-06T09:32:51;7.63;;;6.63;;
37937;SDS011;23763;48.130;11.602;2023-04-06T09:35:19;10.77;;;8.15;;
37937;SDS011;23763;48.130;11.602;2023-04-06T09:37:46;10.18;;;7.45;;
37937;SDS011;23763;48.130;11.602;2023-04-06T09:40:13;8.60;;;7.25;;
37937;SDS011;23763;48.130;11.602;2023-04-06T09:42:42;12.18;;;7.93;;
37937;SDS011;23763;48.130;11.602;2023-04-06T09:45:10;9.00;;;8.05;;
37937;SDS011;23763;48.130;11.602;2023-04-06T09:47:36;10.90;;;8.18;;
37937;SDS011;23763;48.130;11.602;2023-04-06T09:50:05;10.75;;;7.80;;
37937;SDS011;23763;48.130;11.602;2023-04-06T09:52:33;10.60;;;7.90;;
37937;SDS011;23763;48.130;11.602;2023-04-06T09:55:03;12.82;;;7.97;;
37937;SDS011;23763;48.130;11.602;2023-04-06T09:57:36;8.27;;;7.40;;
37937;SDS011;23763;48.130;11.602;2023-04-06T10:00:10;8.25;;;7.22;;
37937;SDS011;23763;48.130;11.602;2023-04-06T10:02:58;10.13;;;7.95;;
37937;SDS011;23763;48.130;11.602;2023-04-06T10:05:55;8.95;;;7.82;;
37937;SDS011;23763;48.130;11.602;2023-04-06T10:08:26;10.80;;;8.90;;
37937;SDS011;23763;48.130;11.602;2023-04-06T10:10:54;9.52;;;7.07;;
37937;SDS011;23763;48.130;11.602;2023-04-06T10:13:20;10.48;;;7.05;;
37937;SDS011;23763;48.130;11.602;2023-04-06T10:15:48;8.82;;;6.93;;
37937;SDS011;23763;48.130;11.602;2023-04-06T10:18:15;11.13;;;7.38;;
37937;SDS011;23763;48.130;11.602;2023-04-06T10:20:43;10.13;;;7.55;;
37937;SDS011;23763;48.130;11.602;2023-04-06T10:23:26;8.63;;;7.53;;
37937;SDS011;23763;48.130;11.602;2023-04-06T10:26:00;9.52;;;7.68;;
37937;SDS011;23763;48.130;11.602;2023-04-06T10:28:34;11.57;;;8.05;;
37937;SDS011;23763;48.130;11.602;2023-04-06T10:31:02;10.70;;;7.05;;
37937;SDS011;23763;48.130;11.602;2023-04-06T10:33:31;9.70;;;7.75;;
37937;SDS011;23763;48.130;11.602;2023-04-06T10:35:57;9.60;;;7.15;;
37937;SDS011;23763;48.130;11.602;2023-04-06T10:38:34;13.90;;;7.70;;
37937;SDS011;23763;48.130;11.602;2023-04-06T10:41:04;9.05;;;7.65;;
37937;SDS011;23763;48.130;11.602;2023-04-06T10:43:35;9.07;;;7.30;;
37937;SDS011;23763;48.130;11.602;2023-04-06T10:46:02;8.90;;;7.70;;
37937;SDS011;23763;48.130;11.602;2023-04-06T10:48:42;9.50;;;7.65;;
37937;SDS011;23763;48.130;11.602;2023-04-06T10:51:19;10.23;;;7.70;;
37937;SDS011;23763;48.130;11.602;2023-04-06T10:53:51;9.32;;;7.40;;
37937;SDS011;23763;48.130;11.602;2023-04-06T10:56:20;11.13;;;7.60;;
37937;SDS011;23763;48.130;11.602;2023-04-06T10:58:48;16.63;;;13.02;;
37937;SDS011;23763;48.130;11.602;2023-04-06T11:01:16;14.82;;;10.10;;
37937;SDS011;23763;48.130;11.602;2023-04-06T11:03:44;12.70;;;8.10;;
37937;SDS011;23763;48.130;11.602;2023-04-06T11:06:11;12.50;;;9.95;;
37937;SDS011;23763;48.130;11.602;2023-04-06T11:08:54;19.75;;;14.57;;
37937;SDS011;23763;48.130;11.602;2023-04-06T11:11:21;9.48;;;8.43;;
37937;SDS011;23763;48.130;11.602;2023-04-06T11:13:49;11.10;;;8.23;;
37937;SDS011;23763;48.130;11.602;2023-04-06T11:16:17;15.48;;;10.25;;
37937;SDS011;23763;48.130;11.602;2023-04-06T11:21:16;13.05;;;10.38;;
37937;SDS011;23763;48.130;11.602;2023-04-06T11:23:42;9.32;;;8.32;;
37937;SDS011;23763;48.130;11.602;2023-04-06T11:26:11;8.55;;;7.57;;
37937;SDS011;23763;48.130;11.602;2023-04-06T11:28:42;11.77;;;7.05;;
37937;SDS011;23763;48.130;11.602;2023-04-06T11:31:08;8.38;;;7.38;;
37937;SDS011;23763;48.130;11.602;2023-04-06T11:33:36;8.20;;;7.40;;
37937;SDS011;23763;48.130;11.602;2023-04-06T11:36:03;18.35;;;12.15;;
37937;SDS011;23763;48.130;11.602;2023-04-06T11:38:29;12.80;;;8.73;;
37937;SDS011;23763;48.130;11.602;2023-04-06T11:40:55;8.73;;;7.75;;
37937;SDS011;23763;48.130;11.602;2023-04-06T11:43:28;10.02;;;7.03;;
37937;SDS011;23763;48.130;11.602;2023-04-06T11:46:00;9.50;;;6.95;;
37937;SDS011;23763;48.130;11.602;2023-04-06T11:48:27;11.13;;;8.68;;
37937;SDS011;23763;48.130;11.602;2023-04-06T11:51:00;8.45;;;7.65;;
37937;SDS011;23763;48.130;11.602;2023-04-06T11:53:27;8.95;;;7.82;;
37937;SDS011;23763;48.130;11.602;2023-04-06T11:55:54;9.65;;;7.95;;
37937;SDS011;23763;48.130;11.602;2023-04-06T11:58:19;11.93;;;7.75;;
37937;SDS011;23763;48.130;11.602;2023-04-06T12:00:45;8.57;;;7.55;;
37937;SDS011;23763;48.130;11.602;2023-04-06T12:03:11;7.68;;;6.35;;
37937;SDS011;23763;48.130;11.602;2023-04-06T12:05:37;8.95;;;5.93;;
37937;SDS011;23763;48.130;11.602;2023-04-06T12:08:03;7.53;;;6.80;;
37937;SDS011;23763;48.130;11.602;2023-04-06T12:10:29;7.63;;;6.93;;
37937;SDS011;23763;48.130;11.602;2023-04-06T12:12:55;8.57;;;7.68;;
37937;SDS011;23763;48.130;11.602;2023-04-06T12:15:20;8.82;;;7.93;;
37937;SDS011;23763;48.130;11.602;2023-04-06T12:17:46;8.52;;;7.47;;
37937;SDS011;23763;48.130;11.602;2023-04-06T12:20:12;10.95;;;9.25;;
37937;SDS011;23763;48.130;11.602;2023-04-06T12:22:38;8.75;;;7.60;;
37937;SDS011;23763;48.130;11.602;2023-04-06T12:25:04;10.60;;;8.13;;
37937;SDS011;23763;48.130;11.602;2023-04-06T12:27:31;10.70;;;7.60;;
37937;SDS011;23763;48.130;11.602;2023-04-06T12:29:57;8.15;;;7.28;;
37937;SDS011;23763;48.130;11.602;2023-04-06T12:32:23;9.88;;;7.50;;
37937;SDS011;23763;48.130;11.602;2023-04-06T12:34:48;10.00;;;8.13;;
37937;SDS011;23763;48.130;11.602;2023-04-06T12:37:16;7.65;;;6.93;;
37937;SDS011;23763;48.130;11.602;2023-04-06T12:39:41;8.07;;;6.85;;
37937;SDS011;23763;48.130;11.602;2023-04-06T12:42:09;6.22;;;5.63;;
37937;SDS011;23763;48.130;11.602;2023-04-06T12:44:35;9.00;;;6.03;;
37937;SDS011;23763;48.130;11.602;2023-04-06T12:47:01;9.75;;;6.50;;
37937;SDS011;23763;48.130;11.602;2023-04-06T12:49:27;8.63;;;5.75;;
37937;SDS011;23763;48.130;11.602;2023-04-06T12:51:53;7.85;;;6.82;;
37937;SDS011;23763;48.130;11.602;2023-04-06T12:54:18;7.68;;;6.25;;
37937;SDS011;23763;48.130;11.602;2023-04-06T12:56:45;6.85;;;6.22;;
37937;SDS011;23763;48.130;11.602;2023-04-06T12:59:11;7.85;;;5.72;;
37937;SDS011;23763;48.130;11.602;2023-04-06T13:01:36;6.78;;;6.13;;
37937;SDS011;23763;48.130;11.602;2023-04-06T13:04:02;6.82;;;5.85;;
37937;SDS011;23763;48.130;11.602;2023-04-06T13:06:28;11.02;;;6.63;;
37937;SDS011;23763;48.130;11.602;2023-04-06T13:08:54;7.38;;;6.20;;
37937;SDS011;23763;48.130;11.602;2023-04-06T13:11:20;7.38;;;5.60;;
37937;SDS011;23763;48.130;11.602;2023-04-06T13:13:49;6.60;;;5.82;;
37937;SDS011;23763;48.130;11.602;2023-04-06T13:16:14;7.97;;;6.40;;
37937;SDS011;23763;48.130;11.602;2023-04-06T13:18:40;9.50;;;6.50;;
37937;SDS011;23763;48.130;11.602;2023-04-06T13:21:06;7.80;;;6.55;;
37937;SDS011;23763;48.130;11.602;2023-04-06T13:23:32;8.73;;;6.20;;
37937;SDS011;23763;48.130;11.602;2023-04-06T13:26:05;7.35;;;5.95;;
37937;SDS011;23763;48.130;11.602;2023-04-06T13:28:33;7.10;;;6.35;;
37937;SDS011;23763;48.130;11.602;2023-04-06T13:30:59;9.38;;;5.85;;
37937;SDS011;23763;48.130;11.602;2023-04-06T13:33:26;7.22;;;6.18;;
37937;SDS011;23763;48.130;11.602;2023-04-06T13:35:53;8.02;;;6.40;;
37937;SDS011;23763;48.130;11.602;2023-04-06T13:38:18;7.80;;;6.38;;
37937;SDS011;23763;48.130;11.602;2023-04-06T13:40:44;7.88;;;6.65;;
37937;SDS011;23763;48.130;11.602;2023-04-06T13:43:10;8.68;;;6.40;;
37937;SDS011;23763;48.130;11.602;2023-04-06T13:45:36;7.88;;;6.40;;
37937;SDS011;23763;48.130;11.602;2023-04-06T13:48:03;8.32;;;6.10;;
37937;SDS011;23763;48.130;11.602;2023-04-06T13:50:29;6.97;;;6.10;;
37937;SDS011;23763;48.130;11.602;2023-04-06T13:52:55;6.90;;;6.22;;
37937;SDS011;23763;48.130;11.602;2023-04-06T13:55:21;7.93;;;5.75;;
37937;SDS011;23763;48.130;11.602;2023-04-06T13:57:49;8.65;;;6.45;;
37937;SDS011;23763;48.130;11.602;2023-04-06T14:00:15;6.50;;;5.88;;
37937;SDS011;23763;48.130;11.602;2023-04-06T14:02:41;7.68;;;6.68;;
37937;SDS011;23763;48.130;11.602;2023-04-06T14:05:15;6.88;;;6.22;;
37937;SDS011;23763;48.130;11.602;2023-04-06T14:07:45;8.00;;;5.55;;
37937;SDS011;23763;48.130;11.602;2023-04-06T14:10:18;6.07;;;5.47;;
37937;SDS011;23763;48.130;11.602;2023-04-06T14:12:52;8.48;;;5.97;;
37937;SDS011;23763;48.130;11.602;2023-04-06T14:15:20;8.52;;;5.57;;
37937;SDS011;23763;48.130;11.602;2023-04-06T14:17:47;6.07;;;5.47;;
37937;SDS011;23763;48.130;11.602;2023-04-06T14:20:13;8.25;;;6.40;;
37937;SDS011;23763;48.130;11.602;2023-04-06T14:22:40;7.88;;;6.00;;
37937;SDS011;23763;48.130;11.602;2023-04-06T14:25:07;8.32;;;5.70;;
37937;SDS011;23763;48.130;11.602;2023-04-06T14:27:33;7.05;;;6.35;;
37937;SDS011;23763;48.130;11.602;2023-04-06T14:29:59;7.25;;;5.93;;
37937;SDS011;23763;48.130;11.602;2023-04-06T14:32:25;6.88;;;6.13;;